FW0765 Weather Reports


Display with metric or nautical units.
time (UTC)temp
F
wind
direction
speed
MPH
gust
MPH
rain 1hr
in
rain 24hr
in
rain mn
in
humidity
%
barometer
mb
20210802184630 72 11 5.0 13.0 0.00 0.50 0.04 91 1017.7
20210802183215 73 355 2.0 15.0 0.04 0.50 0.04 91 1017.8
20210802181632 73 343 6.0 18.0 0.04 0.50 0.04 89 1018.0
20210802180121 74 351 4.0 18.0 0.04 0.50 0.04 88 1017.8
20210802174641 76 5 5.0 17.0 0.04 0.50 0.04 84 1017.8
20210802173225 80 5 0.0 6.0 0.00 0.46 0.00 74 1017.5
20210802171606 78 55 0.0 1.0 0.00 0.46 0.00 80 1017.8
20210802170107 78 324 0.0 5.0 0.00 0.46 0.00 79 1017.7
20210802164542 77 59 0.0 11.0 0.00 0.46 0.00 81 1017.8
20210802163238 78 52 0.0 6.0 0.00 0.46 0.00 79 1017.9
20210802161527 78 279 0.0 4.0 0.00 0.46 0.00 78 1017.8
20210802160046 77 355 0.0 1.0 0.00 0.46 0.00 82 1017.9
20210802154541 76 338 0.0 1.0 0.00 0.46 0.00 83 1017.9
20210802153039 76 25 0.0 9.0 0.00 0.46 0.00 83 1017.8
20210802151524 75 46 0.0 2.0 0.00 0.46 0.00 85 1017.8
20210802150043 75 12 0.0 3.0 0.00 0.46 0.00 85 1017.9
20210802144517 76 46 0.0 2.0 0.00 0.46 0.00 86 1017.9
20210802143044 75 5 0.0 1.0 0.00 0.46 0.00 87 1017.7
20210802141518 74 340 0.0 2.0 0.00 0.46 0.00 90 1017.6
20210802140006 73 43 0.0 2.0 0.00 0.46 0.00 91 1017.6
20210802134505 73 23 0.0 0.0 0.00 0.46 0.00 93 1017.6
20210802133259 72 294 0.0 2.0 0.00 0.46 0.00 93 1017.4
20210802133035 72 294 0.0 2.0 0.00 0.46 0.00 93 1017.5
20210802131649 72 275 0.0 0.0 0.00 0.46 0.00 94 1017.6
20210802130136 71 275 0.0 0.0 0.00 0.46 0.00 94 1017.4
20210802124554 71 275 0.0 0.0 0.00 0.46 0.00 94 1017.1
20210802123126 71 275 0.0 0.0 0.00 0.46 0.00 94 1017.2
20210802123033 71 275 0.0 0.0 0.00 0.46 0.00 94 1017.2
20210802121617 71 275 0.0 0.0 0.00 0.46 0.00 94 1017.1
20210802120117 71 275 0.0 0.0 0.00 0.46 0.00 94 1016.9
20210802114559 70 275 0.0 0.0 0.00 0.46 0.00 94 1016.7
20210802113111 70 275 0.0 0.0 0.00 0.46 0.00 94 1016.8
20210802111647 70 275 0.0 0.0 0.00 0.46 0.00 94 1016.8
20210802110119 70 275 0.0 0.0 0.00 0.46 0.00 94 1017.0
20210802104603 69 275 0.0 0.0 0.00 0.46 0.00 94 1016.9
20210802103210 69 275 0.0 0.0 0.00 0.46 0.00 94 1016.7
20210802101555 69 275 0.0 0.0 0.00 0.46 0.00 94 1016.6
20210802100045 69 275 0.0 0.0 0.00 0.46 0.00 94 1016.6
20210802094606 69 275 0.0 0.0 0.00 0.46 0.00 93 1016.4
20210802093114 69 275 0.0 0.0 0.00 0.46 0.00 93 1016.4
20210802091655 69 275 0.0 0.0 0.00 0.46 0.00 93 1016.5
20210802090109 69 274 0.0 0.0 0.00 0.46 0.00 93 1016.7
20210802084541 69 291 0.0 0.0 0.00 0.46 0.00 93 1016.6
20210802081610 70 291 0.0 0.0 0.00 0.46 0.00 93 1016.3
20210802080045 70 291 0.0 0.0 0.00 0.46 0.00 93 1016.3
20210802074643 70 291 0.0 0.0 0.00 0.46 0.00 92 1016.3
20210802073124 70 291 0.0 0.0 0.00 0.46 0.00 92 1016.1
20210802071558 70 291 0.0 0.0 0.00 0.46 0.00 92 1016.2
20210802070107 70 290 0.0 0.0 0.00 0.46 0.00 91 1016.2
20210802064541 71 283 0.0 0.0 0.00 0.46 0.00 91 1016.3
20210802063118 71 284 0.0 1.0 0.00 0.46 0.00 92 1016.3
20210802061549 71 275 0.0 0.0 0.00 0.46 0.00 93 1016.5
20210802060023 71 250 0.0 0.0 0.00 0.46 0.00 93 1016.7
20210802054518 71 250 0.0 0.0 0.00 0.46 0.00 93 1016.6
20210802051524 71 219 0.0 0.0 0.00 0.46 0.00 93 1016.6
20210802050109 71 219 0.0 0.0 0.00 0.46 0.00 93 1016.4
20210802044536 71 219 0.0 0.0 0.00 0.46 0.46 93 1016.3
20210802043019 71 217 0.0 0.0 0.00 0.46 0.46 92 1016.4
20210802041522 72 217 0.0 0.0 0.00 0.46 0.46 92 1016.3
20210802040015 72 219 0.0 0.0 0.00 0.46 0.46 92 1016.4
20210802034541 72 205 0.0 1.0 0.00 0.46 0.46 92 1016.5
20210802033020 73 243 0.0 0.0 0.00 0.46 0.46 92 1016.1
20210802031600 73 243 0.0 0.0 0.00 0.46 0.46 92 1015.9
20210802030011 73 244 0.0 0.0 0.00 0.46 0.46 92 1015.7
20210802024519 73 241 0.0 0.0 0.00 0.46 0.46 92 1015.5
20210802023035 73 227 0.0 0.0 0.00 0.46 0.46 93 1015.6
20210802021520 73 227 0.0 0.0 0.00 0.46 0.46 92 1015.4
20210802020014 73 227 0.0 0.0 0.00 0.46 0.46 92 1015.3
20210802014530 73 227 0.0 0.0 0.00 0.46 0.46 92 1015.1
20210802013032 73 227 0.0 0.0 0.00 0.46 0.46 91 1015.1
20210802011526 74 227 0.0 0.0 0.00 0.46 0.46 92 1015.1
20210802010022 74 227 0.0 0.0 0.00 0.46 0.46 92 1015.2
20210802004504 74 227 0.0 3.0 0.00 0.46 0.46 92 1015.3
20210802003008 73 221 0.0 8.0 0.02 0.46 0.46 92 1015.3
20210802001517 72 202 0.0 7.0 0.04 0.46 0.46 92 1015.3
20210802000002 71 217 0.0 1.0 0.06 0.46 0.46 93 1015.2
20210801234506 71 200 0.0 8.0 0.07 0.46 0.46 93 1015.1
20210801233053 71 230 0.0 8.0 0.18 0.44 0.44 93 1015.2
20210801231625 71 240 0.0 9.0 0.40 0.42 0.42 92 1015.2
20210801230201 71 262 3.0 10.0 0.40 0.40 0.40 92 1015.5
20210801224743 71 236 1.0 10.0 0.39 0.39 0.39 91 1015.7
20210801221622 77 290 9.0 17.0 0.02 0.02 0.02 72 1016.2
20210801220135 86 57 0.0 4.0 0.00 0.00 0.00 54 1015.1
20210801214641 86 80 0.0 2.0 0.00 0.00 0.00 54 1014.3
20210801213141 86 71 0.0 10.0 0.00 0.00 0.00 53 1014.3
20210801211706 87 45 0.0 9.0 0.00 0.00 0.00 52 1014.0
20210801210135 88 68 4.0 15.0 0.00 0.00 0.00 50 1014.3
20210801204616 88 5 4.0 14.0 0.00 0.00 0.00 50 1013.9
20210801201626 88 49 11.0 20.0 0.00 0.00 0.00 51 1013.8
20210801200138 88 40 8.0 19.0 0.00 0.00 0.00 52 1013.8
20210801194702 88 64 8.0 24.0 0.00 0.00 0.00 51 1013.9
20210801193132 88 38 4.0 18.0 0.00 0.00 0.00 52 1014.1
20210801191608 88 49 7.0 20.0 0.00 0.00 0.00 53 1014.4
20210801190058 87 55 7.0 17.0 0.00 0.00 0.00 56 1014.5